sensor_id;sensor_type;location;lat;lon;timestamp;P1;durP1;ratioP1;P2;durP2;ratioP2
64244;SDS011;50584;29.058;-110.966;2023-03-23T00:02:26;7.20;;;0.70;;
64244;SDS011;50584;29.058;-110.966;2023-03-23T00:04:52;1.73;;;1.00;;
64244;SDS011;50584;29.058;-110.966;2023-03-23T00:07:22;4.78;;;0.77;;
64244;SDS011;50584;29.058;-110.966;2023-03-23T00:09:53;7.30;;;1.00;;
64244;SDS011;50584;29.058;-110.966;2023-03-23T00:12:25;4.35;;;0.98;;
64244;SDS011;50584;29.058;-110.966;2023-03-23T00:14:58;3.97;;;1.00;;
64244;SDS011;50584;29.058;-110.966;2023-03-23T00:17:26;4.07;;;0.60;;
64244;SDS011;50584;29.058;-110.966;2023-03-23T00:19:51;0.88;;;0.85;;
64244;SDS011;50584;29.058;-110.966;2023-03-23T00:22:18;0.98;;;0.68;;
64244;SDS011;50584;29.058;-110.966;2023-03-23T00:24:46;6.03;;;1.00;;
64244;SDS011;50584;29.058;-110.966;2023-03-23T00:27:13;3.00;;;0.80;;
64244;SDS011;50584;29.058;-110.966;2023-03-23T00:29:40;3.38;;;0.93;;
64244;SDS011;50584;29.058;-110.966;2023-03-23T00:32:07;2.20;;;0.63;;
64244;SDS011;50584;29.058;-110.966;2023-03-23T00:34:38;4.95;;;2.08;;
64244;SDS011;50584;29.058;-110.966;2023-03-23T00:37:06;1.40;;;1.30;;
64244;SDS011;50584;29.058;-110.966;2023-03-23T00:39:32;2.83;;;1.17;;
64244;SDS011;50584;29.058;-110.966;2023-03-23T00:41:58;9.30;;;1.40;;
64244;SDS011;50584;29.058;-110.966;2023-03-23T00:44:27;1.77;;;0.70;;
64244;SDS011;50584;29.058;-110.966;2023-03-23T00:46:53;3.72;;;1.00;;
64244;SDS011;50584;29.058;-110.966;2023-03-23T00:49:22;2.20;;;0.90;;
64244;SDS011;50584;29.058;-110.966;2023-03-23T00:51:54;4.32;;;1.00;;
64244;SDS011;50584;29.058;-110.966;2023-03-23T00:54:20;7.13;;;0.88;;
64244;SDS011;50584;29.058;-110.966;2023-03-23T00:56:46;8.20;;;1.30;;
64244;SDS011;50584;29.058;-110.966;2023-03-23T00:59:12;3.33;;;1.10;;
64244;SDS011;50584;29.058;-110.966;2023-03-23T01:01:38;1.40;;;0.90;;
64244;SDS011;50584;29.058;-110.966;2023-03-23T01:04:05;1.83;;;0.82;;
64244;SDS011;50584;29.058;-110.966;2023-03-23T01:06:32;5.43;;;0.90;;
64244;SDS011;50584;29.058;-110.966;2023-03-23T01:09:00;3.47;;;0.82;;
64244;SDS011;50584;29.058;-110.966;2023-03-23T01:11:27;1.27;;;0.70;;
64244;SDS011;50584;29.058;-110.966;2023-03-23T01:13:53;1.17;;;1.08;;
64244;SDS011;50584;29.058;-110.966;2023-03-23T01:16:19;3.40;;;1.50;;
64244;SDS011;50584;29.058;-110.966;2023-03-23T01:18:45;13.60;;;1.50;;
64244;SDS011;50584;29.058;-110.966;2023-03-23T01:21:14;8.32;;;0.90;;
64244;SDS011;50584;29.058;-110.966;2023-03-23T01:23:41;5.88;;;0.95;;
64244;SDS011;50584;29.058;-110.966;2023-03-23T01:26:08;3.33;;;1.05;;
64244;SDS011;50584;29.058;-110.966;2023-03-23T01:28:35;1.65;;;0.90;;
64244;SDS011;50584;29.058;-110.966;2023-03-23T01:31:05;11.30;;;1.40;;
64244;SDS011;50584;29.058;-110.966;2023-03-23T01:33:31;5.63;;;1.13;;
64244;SDS011;50584;29.058;-110.966;2023-03-23T01:35:57;5.95;;;0.93;;
64244;SDS011;50584;29.058;-110.966;2023-03-23T01:38:23;2.92;;;1.17;;
64244;SDS011;50584;29.058;-110.966;2023-03-23T01:40:49;3.83;;;1.33;;
64244;SDS011;50584;29.058;-110.966;2023-03-23T01:43:15;3.17;;;1.15;;
64244;SDS011;50584;29.058;-110.966;2023-03-23T01:45:41;5.53;;;1.10;;
64244;SDS011;50584;29.058;-110.966;2023-03-23T01:50:38;6.60;;;1.10;;
64244;SDS011;50584;29.058;-110.966;2023-03-23T01:53:06;7.10;;;1.40;;
64244;SDS011;50584;29.058;-110.966;2023-03-23T01:55:33;3.45;;;1.30;;
64244;SDS011;50584;29.058;-110.966;2023-03-23T01:58:02;5.85;;;1.27;;
64244;SDS011;50584;29.058;-110.966;2023-03-23T02:00:28;6.22;;;1.50;;
64244;SDS011;50584;29.058;-110.966;2023-03-23T02:02:55;6.90;;;1.33;;
64244;SDS011;50584;29.058;-110.966;2023-03-23T02:05:26;4.72;;;1.30;;
64244;SDS011;50584;29.058;-110.966;2023-03-23T02:07:53;2.40;;;1.02;;
64244;SDS011;50584;29.058;-110.966;2023-03-23T02:10:20;10.40;;;1.27;;
64244;SDS011;50584;29.058;-110.966;2023-03-23T02:12:45;4.65;;;1.35;;
64244;SDS011;50584;29.058;-110.966;2023-03-23T02:15:11;4.50;;;1.20;;
64244;SDS011;50584;29.058;-110.966;2023-03-23T02:17:40;1.75;;;1.05;;
64244;SDS011;50584;29.058;-110.966;2023-03-23T02:38:01;6.57;;;1.10;;
64244;SDS011;50584;29.058;-110.966;2023-03-23T02:40:30;4.30;;;1.23;;
64244;SDS011;50584;29.058;-110.966;2023-03-23T02:42:56;6.28;;;1.00;;
64244;SDS011;50584;29.058;-110.966;2023-03-23T02:45:23;9.27;;;1.38;;
64244;SDS011;50584;29.058;-110.966;2023-03-23T02:47:50;8.32;;;1.33;;
64244;SDS011;50584;29.058;-110.966;2023-03-23T02:50:17;3.70;;;1.27;;
64244;SDS011;50584;29.058;-110.966;2023-03-23T02:52:44;8.75;;;1.40;;
64244;SDS011;50584;29.058;-110.966;2023-03-23T02:55:11;4.65;;;2.08;;
64244;SDS011;50584;29.058;-110.966;2023-03-23T02:57:40;3.25;;;1.33;;
64244;SDS011;50584;29.058;-110.966;2023-03-23T03:00:06;8.30;;;1.10;;
64244;SDS011;50584;29.058;-110.966;2023-03-23T03:02:46;2.92;;;1.45;;
64244;SDS011;50584;29.058;-110.966;2023-03-23T03:10:23;4.80;;;1.30;;
64244;SDS011;50584;29.058;-110.966;2023-03-23T03:18:09;13.75;;;1.63;;
64244;SDS011;50584;29.058;-110.966;2023-03-23T03:20:37;1.45;;;1.33;;
64244;SDS011;50584;29.058;-110.966;2023-03-23T03:23:06;6.45;;;0.90;;
64244;SDS011;50584;29.058;-110.966;2023-03-23T03:25:35;2.17;;;1.15;;
64244;SDS011;50584;29.058;-110.966;2023-03-23T03:28:01;7.25;;;1.50;;
64244;SDS011;50584;29.058;-110.966;2023-03-23T03:30:30;1.92;;;1.58;;
64244;SDS011;50584;29.058;-110.966;2023-03-23T03:32:56;7.00;;;1.48;;
64244;SDS011;50584;29.058;-110.966;2023-03-23T03:35:25;2.28;;;1.48;;
64244;SDS011;50584;29.058;-110.966;2023-03-23T03:37:51;7.85;;;1.70;;
64244;SDS011;50584;29.058;-110.966;2023-03-23T03:40:18;3.47;;;1.70;;
64244;SDS011;50584;29.058;-110.966;2023-03-23T03:42:44;7.45;;;1.50;;
64244;SDS011;50584;29.058;-110.966;2023-03-23T03:45:11;3.97;;;1.65;;
64244;SDS011;50584;29.058;-110.966;2023-03-23T03:47:37;1.88;;;1.45;;
64244;SDS011;50584;29.058;-110.966;2023-03-23T03:50:03;3.58;;;1.50;;
64244;SDS011;50584;29.058;-110.966;2023-03-23T03:52:29;7.30;;;1.30;;
64244;SDS011;50584;29.058;-110.966;2023-03-23T03:54:55;5.80;;;1.40;;
64244;SDS011;50584;29.058;-110.966;2023-03-23T03:57:21;3.33;;;1.77;;
64244;SDS011;50584;29.058;-110.966;2023-03-23T03:59:47;3.72;;;1.50;;
64244;SDS011;50584;29.058;-110.966;2023-03-23T04:02:13;4.43;;;1.55;;
64244;SDS011;50584;29.058;-110.966;2023-03-23T04:04:42;4.65;;;1.13;;
64244;SDS011;50584;29.058;-110.966;2023-03-23T04:07:08;4.13;;;1.60;;
64244;SDS011;50584;29.058;-110.966;2023-03-23T04:09:36;2.88;;;1.00;;
64244;SDS011;50584;29.058;-110.966;2023-03-23T04:12:03;2.58;;;1.20;;
64244;SDS011;50584;29.058;-110.966;2023-03-23T04:14:29;4.80;;;1.20;;
64244;SDS011;50584;29.058;-110.966;2023-03-23T04:16:55;3.83;;;1.50;;
64244;SDS011;50584;29.058;-110.966;2023-03-23T04:19:25;2.50;;;1.15;;
64244;SDS011;50584;29.058;-110.966;2023-03-23T04:21:53;3.28;;;1.20;;
64244;SDS011;50584;29.058;-110.966;2023-03-23T04:24:20;5.93;;;1.33;;
64244;SDS011;50584;29.058;-110.966;2023-03-23T04:26:46;6.10;;;1.45;;
64244;SDS011;50584;29.058;-110.966;2023-03-23T04:29:12;2.20;;;1.20;;
64244;SDS011;50584;29.058;-110.966;2023-03-23T04:31:38;5.43;;;1.42;;
64244;SDS011;50584;29.058;-110.966;2023-03-23T04:34:05;3.25;;;1.30;;
64244;SDS011;50584;29.058;-110.966;2023-03-23T04:36:31;3.95;;;1.58;;
64244;SDS011;50584;29.058;-110.966;2023-03-23T04:38:59;8.43;;;1.63;;
64244;SDS011;50584;29.058;-110.966;2023-03-23T04:41:25;3.35;;;1.27;;
64244;SDS011;50584;29.058;-110.966;2023-03-23T04:43:51;5.40;;;1.58;;
64244;SDS011;50584;29.058;-110.966;2023-03-23T04:46:19;4.50;;;1.60;;
64244;SDS011;50584;29.058;-110.966;2023-03-23T04:48:46;5.53;;;1.33;;
64244;SDS011;50584;29.058;-110.966;2023-03-23T04:51:12;6.75;;;1.27;;
64244;SDS011;50584;29.058;-110.966;2023-03-23T04:53:38;5.07;;;1.40;;
64244;SDS011;50584;29.058;-110.966;2023-03-23T04:56:04;5.07;;;1.55;;
64244;SDS011;50584;29.058;-110.966;2023-03-23T04:58:30;6.43;;;1.40;;
64244;SDS011;50584;29.058;-110.966;2023-03-23T05:00:59;3.63;;;1.33;;
64244;SDS011;50584;29.058;-110.966;2023-03-23T05:03:25;3.22;;;1.33;;
64244;SDS011;50584;29.058;-110.966;2023-03-23T05:05:52;9.85;;;1.55;;
64244;SDS011;50584;29.058;-110.966;2023-03-23T05:08:22;6.07;;;1.27;;
64244;SDS011;50584;29.058;-110.966;2023-03-23T05:10:53;1.48;;;1.23;;
64244;SDS011;50584;29.058;-110.966;2023-03-23T05:13:19;5.32;;;1.38;;
64244;SDS011;50584;29.058;-110.966;2023-03-23T05:15:45;3.55;;;1.33;;
64244;SDS011;50584;29.058;-110.966;2023-03-23T05:18:11;1.38;;;0.93;;
64244;SDS011;50584;29.058;-110.966;2023-03-23T05:20:37;3.40;;;1.10;;
64244;SDS011;50584;29.058;-110.966;2023-03-23T05:23:02;2.83;;;1.33;;
64244;SDS011;50584;29.058;-110.966;2023-03-23T05:25:29;4.38;;;1.40;;
64244;SDS011;50584;29.058;-110.966;2023-03-23T05:27:55;6.85;;;1.50;;
64244;SDS011;50584;29.058;-110.966;2023-03-23T05:30:21;3.20;;;1.42;;
64244;SDS011;50584;29.058;-110.966;2023-03-23T05:32:47;4.43;;;1.40;;
64244;SDS011;50584;29.058;-110.966;2023-03-23T05:35:16;4.38;;;1.70;;
64244;SDS011;50584;29.058;-110.966;2023-03-23T05:37:42;5.97;;;1.10;;
64244;SDS011;50584;29.058;-110.966;2023-03-23T05:40:09;8.20;;;1.30;;
64244;SDS011;50584;29.058;-110.966;2023-03-23T05:42:37;3.83;;;1.52;;
64244;SDS011;50584;29.058;-110.966;2023-03-23T05:45:03;7.38;;;1.40;;
64244;SDS011;50584;29.058;-110.966;2023-03-23T05:47:29;4.60;;;1.83;;
64244;SDS011;50584;29.058;-110.966;2023-03-23T05:49:55;6.45;;;1.40;;
64244;SDS011;50584;29.058;-110.966;2023-03-23T05:52:22;2.97;;;1.30;;
64244;SDS011;50584;29.058;-110.966;2023-03-23T05:54:49;2.47;;;1.20;;
64244;SDS011;50584;29.058;-110.966;2023-03-23T05:57:15;3.97;;;1.15;;
64244;SDS011;50584;29.058;-110.966;2023-03-23T05:59:41;4.32;;;1.60;;
64244;SDS011;50584;29.058;-110.966;2023-03-23T06:02:07;3.25;;;1.40;;
64244;SDS011;50584;29.058;-110.966;2023-03-23T06:04:33;3.40;;;1.10;;
64244;SDS011;50584;29.058;-110.966;2023-03-23T06:07:01;6.10;;;1.60;;
64244;SDS011;50584;29.058;-110.966;2023-03-23T06:09:27;4.72;;;1.45;;
64244;SDS011;50584;29.058;-110.966;2023-03-23T06:11:53;7.25;;;1.45;;
64244;SDS011;50584;29.058;-110.966;2023-03-23T06:14:19;2.95;;;1.30;;
64244;SDS011;50584;29.058;-110.966;2023-03-23T06:16:45;4.90;;;1.60;;
64244;SDS011;50584;29.058;-110.966;2023-03-23T06:19:11;5.53;;;1.50;;
64244;SDS011;50584;29.058;-110.966;2023-03-23T06:21:37;3.47;;;1.13;;
64244;SDS011;50584;29.058;-110.966;2023-03-23T06:24:03;5.07;;;1.50;;
64244;SDS011;50584;29.058;-110.966;2023-03-23T06:26:30;3.30;;;1.30;;
64244;SDS011;50584;29.058;-110.966;2023-03-23T06:28:57;4.95;;;1.35;;
64244;SDS011;50584;29.058;-110.966;2023-03-23T06:31:23;7.28;;;1.65;;
64244;SDS011;50584;29.058;-110.966;2023-03-23T06:33:49;3.58;;;1.50;;
64244;SDS011;50584;29.058;-110.966;2023-03-23T06:36:15;3.40;;;1.48;;
64244;SDS011;50584;29.058;-110.966;2023-03-23T06:38:42;3.63;;;1.20;;
64244;SDS011;50584;29.058;-110.966;2023-03-23T06:41:07;2.65;;;1.17;;
64244;SDS011;50584;29.058;-110.966;2023-03-23T06:43:33;2.08;;;1.30;;
64244;SDS011;50584;29.058;-110.966;2023-03-23T06:46:01;1.20;;;1.10;;
64244;SDS011;50584;29.058;-110.966;2023-03-23T06:48:27;3.88;;;1.17;;
64244;SDS011;50584;29.058;-110.966;2023-03-23T06:50:53;3.35;;;1.45;;
64244;SDS011;50584;29.058;-110.966;2023-03-23T06:53:19;2.80;;;1.15;;
64244;SDS011;50584;29.058;-110.966;2023-03-23T06:55:45;5.82;;;1.40;;
64244;SDS011;50584;29.058;-110.966;2023-03-23T06:58:12;3.95;;;1.13;;
64244;SDS011;50584;29.058;-110.966;2023-03-23T07:00:37;3.05;;;1.45;;
64244;SDS011;50584;29.058;-110.966;2023-03-23T07:03:04;4.53;;;1.58;;
64244;SDS011;50584;29.058;-110.966;2023-03-23T07:05:29;5.95;;;1.70;;
64244;SDS011;50584;29.058;-110.966;2023-03-23T07:07:55;4.07;;;1.23;;
64244;SDS011;50584;29.058;-110.966;2023-03-23T07:10:21;3.45;;;1.40;;
64244;SDS011;50584;29.058;-110.966;2023-03-23T07:12:47;4.07;;;1.33;;
64244;SDS011;50584;29.058;-110.966;2023-03-23T07:15:13;1.98;;;1.52;;
64244;SDS011;50584;29.058;-110.966;2023-03-23T07:17:39;1.73;;;1.35;;
64244;SDS011;50584;29.058;-110.966;2023-03-23T07:20:05;2.25;;;1.17;;
64244;SDS011;50584;29.058;-110.966;2023-03-23T07:22:31;3.13;;;1.48;;
64244;SDS011;50584;29.058;-110.966;2023-03-23T07:24:57;2.95;;;1.35;;
64244;SDS011;50584;29.058;-110.966;2023-03-23T07:27:22;2.40;;;1.00;;
64244;SDS011;50584;29.058;-110.966;2023-03-23T07:29:49;4.50;;;1.10;;
64244;SDS011;50584;29.058;-110.966;2023-03-23T07:32:15;5.20;;;1.45;;
64244;SDS011;50584;29.058;-110.966;2023-03-23T07:34:41;2.15;;;1.40;;
64244;SDS011;50584;29.058;-110.966;2023-03-23T07:37:07;2.90;;;1.15;;
64244;SDS011;50584;29.058;-110.966;2023-03-23T07:39:33;3.83;;;1.50;;
64244;SDS011;50584;29.058;-110.966;2023-03-23T07:41:59;5.60;;;1.67;;
64244;SDS011;50584;29.058;-110.966;2023-03-23T07:44:25;2.03;;;1.17;;
64244;SDS011;50584;29.058;-110.966;2023-03-23T07:46:51;5.05;;;1.80;;
64244;SDS011;50584;29.058;-110.966;2023-03-23T07:49:17;4.15;;;2.47;;
64244;SDS011;50584;29.058;-110.966;2023-03-23T07:51:43;3.88;;;1.67;;
64244;SDS011;50584;29.058;-110.966;2023-03-23T07:54:09;3.95;;;1.50;;
64244;SDS011;50584;29.058;-110.966;2023-03-23T07:56:36;3.28;;;1.65;;
64244;SDS011;50584;29.058;-110.966;2023-03-23T07:59:02;5.63;;;1.70;;
64244;SDS011;50584;29.058;-110.966;2023-03-23T08:01:30;2.75;;;1.60;;
64244;SDS011;50584;29.058;-110.966;2023-03-23T08:03:56;3.92;;;1.80;;
64244;SDS011;50584;29.058;-110.966;2023-03-23T08:06:23;1.60;;;1.30;;
64244;SDS011;50584;29.058;-110.966;2023-03-23T08:08:50;3.42;;;1.67;;
64244;SDS011;50584;29.058;-110.966;2023-03-23T08:11:16;6.22;;;1.80;;
64244;SDS011;50584;29.058;-110.966;2023-03-23T08:13:42;2.63;;;1.17;;
64244;SDS011;50584;29.058;-110.966;2023-03-23T08:16:08;4.43;;;1.90;;
64244;SDS011;50584;29.058;-110.966;2023-03-23T08:18:35;4.88;;;2.72;;
64244;SDS011;50584;29.058;-110.966;2023-03-23T08:21:01;3.65;;;1.80;;
64244;SDS011;50584;29.058;-110.966;2023-03-23T08:23:28;2.80;;;1.92;;
64244;SDS011;50584;29.058;-110.966;2023-03-23T08:25:54;2.97;;;1.60;;
64244;SDS011;50584;29.058;-110.966;2023-03-23T08:28:19;5.15;;;1.90;;
64244;SDS011;50584;29.058;-110.966;2023-03-23T08:30:45;5.72;;;2.00;;
64244;SDS011;50584;29.058;-110.966;2023-03-23T08:33:11;6.32;;;1.83;;
64244;SDS011;50584;29.058;-110.966;2023-03-23T08:35:39;3.15;;;1.65;;
64244;SDS011;50584;29.058;-110.966;2023-03-23T08:38:05;4.57;;;1.70;;
64244;SDS011;50584;29.058;-110.966;2023-03-23T08:40:31;2.70;;;1.35;;
64244;SDS011;50584;29.058;-110.966;2023-03-23T08:42:57;4.47;;;1.58;;
64244;SDS011;50584;29.058;-110.966;2023-03-23T08:45:24;7.88;;;1.40;;
64244;SDS011;50584;29.058;-110.966;2023-03-23T08:47:50;5.15;;;1.65;;
64244;SDS011;50584;29.058;-110.966;2023-03-23T08:50:22;3.70;;;1.60;;
64244;SDS011;50584;29.058;-110.966;2023-03-23T08:52:48;2.13;;;1.60;;
64244;SDS011;50584;29.058;-110.966;2023-03-23T08:55:15;9.63;;;1.83;;
64244;SDS011;50584;29.058;-110.966;2023-03-23T08:57:42;2.65;;;1.40;;
64244;SDS011;50584;29.058;-110.966;2023-03-23T09:00:10;9.52;;;1.40;;
64244;SDS011;50584;29.058;-110.966;2023-03-23T09:05:05;2.75;;;1.33;;
64244;SDS011;50584;29.058;-110.966;2023-03-23T09:07:32;4.07;;;1.65;;
64244;SDS011;50584;29.058;-110.966;2023-03-23T09:09:58;3.35;;;1.30;;
64244;SDS011;50584;29.058;-110.966;2023-03-23T09:12:24;3.22;;;1.38;;
64244;SDS011;50584;29.058;-110.966;2023-03-23T09:14:50;3.75;;;1.40;;
64244;SDS011;50584;29.058;-110.966;2023-03-23T09:17:15;3.95;;;1.50;;
64244;SDS011;50584;29.058;-110.966;2023-03-23T09:19:41;1.92;;;1.48;;
64244;SDS011;50584;29.058;-110.966;2023-03-23T09:22:07;2.97;;;1.48;;
64244;SDS011;50584;29.058;-110.966;2023-03-23T09:24:33;2.53;;;1.50;;
64244;SDS011;50584;29.058;-110.966;2023-03-23T09:26:59;2.83;;;1.10;;
64244;SDS011;50584;29.058;-110.966;2023-03-23T09:29:26;3.00;;;1.38;;
64244;SDS011;50584;29.058;-110.966;2023-03-23T09:31:52;5.28;;;1.50;;
64244;SDS011;50584;29.058;-110.966;2023-03-23T09:34:18;2.28;;;1.20;;
64244;SDS011;50584;29.058;-110.966;2023-03-23T09:36:44;4.78;;;1.30;;
64244;SDS011;50584;29.058;-110.966;2023-03-23T09:39:10;1.73;;;1.20;;
64244;SDS011;50584;29.058;-110.966;2023-03-23T09:49:27;3.00;;;1.35;;
64244;SDS011;50584;29.058;-110.966;2023-03-23T09:51:56;4.43;;;1.42;;
64244;SDS011;50584;29.058;-110.966;2023-03-23T09:54:30;5.80;;;1.23;;
64244;SDS011;50584;29.058;-110.966;2023-03-23T09:56:58;3.75;;;1.20;;
64244;SDS011;50584;29.058;-110.966;2023-03-23T10:01:54;3.08;;;1.35;;
64244;SDS011;50584;29.058;-110.966;2023-03-23T10:09:29;2.42;;;1.20;;
64244;SDS011;50584;29.058;-110.966;2023-03-23T10:12:04;3.63;;;0.95;;
64244;SDS011;50584;29.058;-110.966;2023-03-23T10:14:47;6.32;;;1.10;;
64244;SDS011;50584;29.058;-110.966;2023-03-23T10:17:22;2.00;;;1.20;;
64244;SDS011;50584;29.058;-110.966;2023-03-23T10:22:25;3.28;;;1.33;;
64244;SDS011;50584;29.058;-110.966;2023-03-23T10:25:28;2.95;;;1.00;;
64244;SDS011;50584;29.058;-110.966;2023-03-23T10:33:03;1.80;;;1.00;;
64244;SDS011;50584;29.058;-110.966;2023-03-23T10:35:35;3.65;;;1.23;;
64244;SDS011;50584;29.058;-110.966;2023-03-23T10:38:06;5.13;;;1.08;;
64244;SDS011;50584;29.058;-110.966;2023-03-23T10:40:38;2.55;;;1.20;;
64244;SDS011;50584;29.058;-110.966;2023-03-23T10:43:05;1.80;;;1.10;;
64244;SDS011;50584;29.058;-110.966;2023-03-23T10:45:31;3.55;;;1.13;;
64244;SDS011;50584;29.058;-110.966;2023-03-23T10:50:34;3.50;;;1.20;;
64244;SDS011;50584;29.058;-110.966;2023-03-23T10:53:00;2.67;;;1.48;;
64244;SDS011;50584;29.058;-110.966;2023-03-23T10:55:40;2.45;;;1.45;;
64244;SDS011;50584;29.058;-110.966;2023-03-23T10:58:10;2.40;;;1.15;;
64244;SDS011;50584;29.058;-110.966;2023-03-23T11:00:43;4.00;;;1.60;;
64244;SDS011;50584;29.058;-110.966;2023-03-23T11:06:05;1.30;;;1.20;;
64244;SDS011;50584;29.058;-110.966;2023-03-23T11:08:35;1.30;;;1.00;;
64244;SDS011;50584;29.058;-110.966;2023-03-23T11:13:33;3.60;;;1.13;;
64244;SDS011;50584;29.058;-110.966;2023-03-23T11:16:00;2.88;;;1.23;;
64244;SDS011;50584;29.058;-110.966;2023-03-23T11:18:27;2.08;;;1.30;;
64244;SDS011;50584;29.058;-110.966;2023-03-23T11:20:59;2.78;;;1.10;;
64244;SDS011;50584;29.058;-110.966;2023-03-23T11:23:33;3.85;;;1.15;;
64244;SDS011;50584;29.058;-110.966;2023-03-23T11:28:33;3.35;;;1.42;;
64244;SDS011;50584;29.058;-110.966;2023-03-23T11:31:00;6.10;;;1.52;;
64244;SDS011;50584;29.058;-110.966;2023-03-23T11:33:35;1.17;;;0.80;;
64244;SDS011;50584;29.058;-110.966;2023-03-23T11:36:02;3.72;;;1.30;;
64244;SDS011;50584;29.058;-110.966;2023-03-23T11:38:28;4.65;;;1.30;;
64244;SDS011;50584;29.058;-110.966;2023-03-23T11:40:54;4.40;;;1.40;;
64244;SDS011;50584;29.058;-110.966;2023-03-23T11:43:21;2.58;;;1.10;;
64244;SDS011;50584;29.058;-110.966;2023-03-23T11:46:34;3.28;;;1.00;;
64244;SDS011;50584;29.058;-110.966;2023-03-23T11:48:46;3.10;;;1.20;;
64244;SDS011;50584;29.058;-110.966;2023-03-23T11:51:16;4.68;;;1.25;;
64244;SDS011;50584;29.058;-110.966;2023-03-23T11:56:33;6.30;;;1.10;;
64244;SDS011;50584;29.058;-110.966;2023-03-23T11:58:59;4.80;;;1.05;;
64244;SDS011;50584;29.058;-110.966;2023-03-23T12:04:12;2.13;;;1.02;;
64244;SDS011;50584;29.058;-110.966;2023-03-23T12:21:45;4.60;;;1.30;;
64244;SDS011;50584;29.058;-110.966;2023-03-23T12:27:15;2.60;;;1.02;;
64244;SDS011;50584;29.058;-110.966;2023-03-23T12:30:29;6.82;;;1.40;;
64244;SDS011;50584;29.058;-110.966;2023-03-23T12:32:41;2.65;;;1.20;;
64244;SDS011;50584;29.058;-110.966;2023-03-23T12:48:26;2.25;;;1.02;;
64244;SDS011;50584;29.058;-110.966;2023-03-23T12:53:23;2.20;;;0.90;;
64244;SDS011;50584;29.058;-110.966;2023-03-23T12:56:03;2.45;;;1.13;;
64244;SDS011;50584;29.058;-110.966;2023-03-23T12:58:31;3.58;;;1.20;;
64244;SDS011;50584;29.058;-110.966;2023-03-23T13:03:51;2.10;;;1.33;;
64244;SDS011;50584;29.058;-110.966;2023-03-23T13:08:54;2.70;;;1.45;;
64244;SDS011;50584;29.058;-110.966;2023-03-23T13:11:33;7.03;;;1.30;;
64244;SDS011;50584;29.058;-110.966;2023-03-23T13:14:10;6.03;;;1.23;;
64244;SDS011;50584;29.058;-110.966;2023-03-23T13:16:42;5.47;;;1.20;;
64244;SDS011;50584;29.058;-110.966;2023-03-23T13:21:58;8.18;;;2.05;;
64244;SDS011;50584;29.058;-110.966;2023-03-23T13:24:27;11.02;;;1.20;;
64244;SDS011;50584;29.058;-110.966;2023-03-23T13:26:54;3.15;;;1.45;;
64244;SDS011;50584;29.058;-110.966;2023-03-23T13:29:22;3.08;;;1.50;;
64244;SDS011;50584;29.058;-110.966;2023-03-23T13:32:03;8.00;;;2.20;;
64244;SDS011;50584;29.058;-110.966;2023-03-23T13:34:30;6.63;;;1.58;;
64244;SDS011;50584;29.058;-110.966;2023-03-23T13:36:57;5.22;;;1.60;;
64244;SDS011;50584;29.058;-110.966;2023-03-23T13:39:32;6.78;;;1.67;;
64244;SDS011;50584;29.058;-110.966;2023-03-23T13:52:37;12.77;;;1.85;;
64244;SDS011;50584;29.058;-110.966;2023-03-23T13:57:52;24.25;;;9.27;;
64244;SDS011;50584;29.058;-110.966;2023-03-23T14:03:02;22.80;;;11.82;;
64244;SDS011;50584;29.058;-110.966;2023-03-23T14:10:55;15.85;;;7.00;;
64244;SDS011;50584;29.058;-110.966;2023-03-23T14:16:21;23.80;;;9.93;;
64244;SDS011;50584;29.058;-110.966;2023-03-23T14:18:48;35.03;;;17.02;;
64244;SDS011;50584;29.058;-110.966;2023-03-23T14:21:17;15.88;;;6.75;;
64244;SDS011;50584;29.058;-110.966;2023-03-23T14:23:43;56.40;;;23.77;;
64244;SDS011;50584;29.058;-110.966;2023-03-23T14:26:12;11.18;;;6.35;;
64244;SDS011;50584;29.058;-110.966;2023-03-23T14:28:42;90.43;;;40.60;;
64244;SDS011;50584;29.058;-110.966;2023-03-23T14:31:24;59.75;;;22.98;;
64244;SDS011;50584;29.058;-110.966;2023-03-23T14:33:51;18.42;;;6.80;;
64244;SDS011;50584;29.058;-110.966;2023-03-23T14:36:25;22.77;;;6.78;;
64244;SDS011;50584;29.058;-110.966;2023-03-23T14:41:31;34.65;;;11.35;;
64244;SDS011;50584;29.058;-110.966;2023-03-23T14:44:01;7.53;;;2.58;;
64244;SDS011;50584;29.058;-110.966;2023-03-23T14:46:27;27.40;;;11.77;;
64244;SDS011;50584;29.058;-110.966;2023-03-23T14:48:54;27.98;;;12.60;;
64244;SDS011;50584;29.058;-110.966;2023-03-23T14:51:20;9.80;;;2.40;;
64244;SDS011;50584;29.058;-110.966;2023-03-23T14:53:46;18.73;;;10.48;;
64244;SDS011;50584;29.058;-110.966;2023-03-23T14:56:20;26.05;;;11.25;;
64244;SDS011;50584;29.058;-110.966;2023-03-23T14:58:49;32.13;;;9.50;;
64244;SDS011;50584;29.058;-110.966;2023-03-23T15:01:19;26.52;;;9.98;;
64244;SDS011;50584;29.058;-110.966;2023-03-23T15:06:31;42.58;;;17.17;;
64244;SDS011;50584;29.058;-110.966;2023-03-23T15:08:59;27.92;;;9.18;;
64244;SDS011;50584;29.058;-110.966;2023-03-23T15:11:32;35.38;;;10.88;;
64244;SDS011;50584;29.058;-110.966;2023-03-23T15:14:00;22.15;;;10.63;;
64244;SDS011;50584;29.058;-110.966;2023-03-23T15:16:32;14.95;;;5.13;;
64244;SDS011;50584;29.058;-110.966;2023-03-23T15:18:59;9.65;;;2.72;;
64244;SDS011;50584;29.058;-110.966;2023-03-23T15:21:33;44.42;;;17.50;;
64244;SDS011;50584;29.058;-110.966;2023-03-23T15:24:02;18.70;;;6.18;;
64244;SDS011;50584;29.058;-110.966;2023-03-23T15:26:30;12.15;;;4.57;;
64244;SDS011;50584;29.058;-110.966;2023-03-23T15:31:39;16.65;;;6.32;;
64244;SDS011;50584;29.058;-110.966;2023-03-23T15:34:06;17.00;;;5.25;;
64244;SDS011;50584;29.058;-110.966;2023-03-23T15:36:36;10.40;;;4.30;;
64244;SDS011;50584;29.058;-110.966;2023-03-23T15:39:02;18.60;;;5.90;;
64244;SDS011;50584;29.058;-110.966;2023-03-23T15:41:29;20.70;;;7.00;;
64244;SDS011;50584;29.058;-110.966;2023-03-23T15:44:08;12.63;;;2.40;;
64244;SDS011;50584;29.058;-110.966;2023-03-23T15:46:34;16.08;;;5.47;;
64244;SDS011;50584;29.058;-110.966;2023-03-23T15:51:28;23.38;;;4.93;;
64244;SDS011;50584;29.058;-110.966;2023-03-23T15:53:54;23.75;;;7.22;;
64244;SDS011;50584;29.058;-110.966;2023-03-23T15:56:20;23.52;;;5.15;;
64244;SDS011;50584;29.058;-110.966;2023-03-23T15:58:47;10.02;;;2.92;;
64244;SDS011;50584;29.058;-110.966;2023-03-23T16:01:31;17.15;;;4.63;;
64244;SDS011;50584;29.058;-110.966;2023-03-23T16:06:32;15.80;;;3.92;;
64244;SDS011;50584;29.058;-110.966;2023-03-23T16:08:58;19.00;;;4.50;;
64244;SDS011;50584;29.058;-110.966;2023-03-23T16:11:26;9.38;;;4.13;;
64244;SDS011;50584;29.058;-110.966;2023-03-23T16:13:52;12.20;;;2.13;;
64244;SDS011;50584;29.058;-110.966;2023-03-23T16:16:19;10.18;;;3.63;;
64244;SDS011;50584;29.058;-110.966;2023-03-23T16:18:46;8.63;;;2.33;;
64244;SDS011;50584;29.058;-110.966;2023-03-23T16:21:12;15.40;;;2.60;;
64244;SDS011;50584;29.058;-110.966;2023-03-23T16:23:38;14.63;;;2.20;;
64244;SDS011;50584;29.058;-110.966;2023-03-23T16:26:05;4.30;;;1.40;;
64244;SDS011;50584;29.058;-110.966;2023-03-23T16:28:30;6.47;;;1.90;;
64244;SDS011;50584;29.058;-110.966;2023-03-23T16:30:57;6.82;;;2.50;;
64244;SDS011;50584;29.058;-110.966;2023-03-23T16:33:22;9.00;;;3.20;;
64244;SDS011;50584;29.058;-110.966;2023-03-23T16:35:48;6.00;;;1.75;;
64244;SDS011;50584;29.058;-110.966;2023-03-23T16:38:15;7.38;;;1.48;;
64244;SDS011;50584;29.058;-110.966;2023-03-23T16:40:44;4.05;;;1.50;;
64244;SDS011;50584;29.058;-110.966;2023-03-23T16:43:11;6.43;;;2.03;;